sensor_id;sensor_type;location;lat;lon;timestamp;P1;durP1;ratioP1;P2;durP2;ratioP2
21166;SDS011;10741;52.272;9.580;2022-09-09T00:04:26;2.40;;;1.80;;
21166;SDS011;10741;52.272;9.580;2022-09-09T00:06:55;2.57;;;1.80;;
21166;SDS011;10741;52.272;9.580;2022-09-09T00:09:28;4.43;;;1.87;;
21166;SDS011;10741;52.272;9.580;2022-09-09T00:12:04;3.83;;;1.70;;
21166;SDS011;10741;52.272;9.580;2022-09-09T00:17:43;1.53;;;1.20;;
21166;SDS011;10741;52.272;9.580;2022-09-09T00:25:40;2.40;;;1.57;;
21166;SDS011;10741;52.272;9.580;2022-09-09T00:28:17;3.37;;;1.50;;
21166;SDS011;10741;52.272;9.580;2022-09-09T00:30:45;3.23;;;1.33;;
21166;SDS011;10741;52.272;9.580;2022-09-09T00:33:15;6.97;;;1.40;;
21166;SDS011;10741;52.272;9.580;2022-09-09T00:35:45;3.20;;;1.80;;
21166;SDS011;10741;52.272;9.580;2022-09-09T00:43:57;2.53;;;1.50;;
21166;SDS011;10741;52.272;9.580;2022-09-09T00:49:39;3.73;;;1.60;;
21166;SDS011;10741;52.272;9.580;2022-09-09T00:57:53;3.37;;;1.50;;
21166;SDS011;10741;52.272;9.580;2022-09-09T01:05:42;1.60;;;1.30;;
21166;SDS011;10741;52.272;9.580;2022-09-09T01:11:41;3.27;;;1.60;;
21166;SDS011;10741;52.272;9.580;2022-09-09T01:16:56;4.33;;;1.50;;
21166;SDS011;10741;52.272;9.580;2022-09-09T01:20:27;2.00;;;1.80;;
21166;SDS011;10741;52.272;9.580;2022-09-09T01:27:33;2.93;;;1.70;;
21166;SDS011;10741;52.272;9.580;2022-09-09T01:30:00;3.20;;;1.63;;
21166;SDS011;10741;52.272;9.580;2022-09-09T01:35:09;3.43;;;1.60;;
21166;SDS011;10741;52.272;9.580;2022-09-09T01:37:44;3.50;;;1.80;;
21166;SDS011;10741;52.272;9.580;2022-09-09T01:40:10;3.50;;;1.77;;
21166;SDS011;10741;52.272;9.580;2022-09-09T01:42:36;1.60;;;1.50;;
21166;SDS011;10741;52.272;9.580;2022-09-09T01:45:02;3.37;;;2.20;;
21166;SDS011;10741;52.272;9.580;2022-09-09T01:47:28;3.63;;;2.03;;
21166;SDS011;10741;52.272;9.580;2022-09-09T01:49:54;2.83;;;1.63;;
21166;SDS011;10741;52.272;9.580;2022-09-09T01:52:20;2.30;;;1.70;;
21166;SDS011;10741;52.272;9.580;2022-09-09T01:54:46;2.70;;;1.90;;
21166;SDS011;10741;52.272;9.580;2022-09-09T01:59:54;3.23;;;2.10;;
21166;SDS011;10741;52.272;9.580;2022-09-09T02:05:07;2.53;;;1.80;;
21166;SDS011;10741;52.272;9.580;2022-09-09T02:07:49;4.70;;;1.83;;
21166;SDS011;10741;52.272;9.580;2022-09-09T02:10:21;2.83;;;1.70;;
21166;SDS011;10741;52.272;9.580;2022-09-09T02:13:15;5.03;;;1.80;;
21166;SDS011;10741;52.272;9.580;2022-09-09T02:15:55;6.40;;;1.93;;
21166;SDS011;10741;52.272;9.580;2022-09-09T02:18:42;3.50;;;1.67;;
21166;SDS011;10741;52.272;9.580;2022-09-09T02:21:16;5.80;;;2.00;;
21166;SDS011;10741;52.272;9.580;2022-09-09T02:23:43;4.80;;;1.80;;
21166;SDS011;10741;52.272;9.580;2022-09-09T02:26:12;5.73;;;1.67;;
21166;SDS011;10741;52.272;9.580;2022-09-09T02:28:44;3.87;;;1.50;;
21166;SDS011;10741;52.272;9.580;2022-09-09T02:31:12;3.50;;;1.40;;
21166;SDS011;10741;52.272;9.580;2022-09-09T02:33:45;4.67;;;1.80;;
21166;SDS011;10741;52.272;9.580;2022-09-09T02:36:16;3.63;;;1.53;;
21166;SDS011;10741;52.272;9.580;2022-09-09T02:38:45;4.83;;;1.90;;
21166;SDS011;10741;52.272;9.580;2022-09-09T02:41:23;3.07;;;1.70;;
21166;SDS011;10741;52.272;9.580;2022-09-09T02:43:56;4.53;;;1.60;;
21166;SDS011;10741;52.272;9.580;2022-09-09T02:49:09;2.67;;;1.90;;
21166;SDS011;10741;52.272;9.580;2022-09-09T02:56:45;4.37;;;1.50;;
21166;SDS011;10741;52.272;9.580;2022-09-09T02:59:15;3.47;;;1.40;;
21166;SDS011;10741;52.272;9.580;2022-09-09T03:01:42;3.17;;;1.50;;
21166;SDS011;10741;52.272;9.580;2022-09-09T03:04:09;3.33;;;1.60;;
21166;SDS011;10741;52.272;9.580;2022-09-09T03:06:35;6.20;;;1.73;;
21166;SDS011;10741;52.272;9.580;2022-09-09T03:09:00;5.40;;;1.63;;
21166;SDS011;10741;52.272;9.580;2022-09-09T03:11:27;4.10;;;1.77;;
21166;SDS011;10741;52.272;9.580;2022-09-09T03:13:53;3.63;;;1.57;;
21166;SDS011;10741;52.272;9.580;2022-09-09T03:16:21;5.97;;;1.87;;
21166;SDS011;10741;52.272;9.580;2022-09-09T03:18:47;4.27;;;1.80;;
21166;SDS011;10741;52.272;9.580;2022-09-09T03:21:14;2.57;;;1.70;;
21166;SDS011;10741;52.272;9.580;2022-09-09T03:23:39;4.83;;;1.80;;
21166;SDS011;10741;52.272;9.580;2022-09-09T03:26:06;8.67;;;1.87;;
21166;SDS011;10741;52.272;9.580;2022-09-09T03:28:32;8.30;;;2.47;;
21166;SDS011;10741;52.272;9.580;2022-09-09T03:31:04;6.70;;;2.20;;
21166;SDS011;10741;52.272;9.580;2022-09-09T03:33:31;4.10;;;2.00;;
21166;SDS011;10741;52.272;9.580;2022-09-09T03:35:56;3.53;;;1.80;;
21166;SDS011;10741;52.272;9.580;2022-09-09T03:38:23;3.63;;;1.60;;
21166;SDS011;10741;52.272;9.580;2022-09-09T03:40:53;3.93;;;2.00;;
21166;SDS011;10741;52.272;9.580;2022-09-09T03:43:21;3.63;;;1.80;;
21166;SDS011;10741;52.272;9.580;2022-09-09T03:45:47;6.83;;;2.00;;
21166;SDS011;10741;52.272;9.580;2022-09-09T03:48:14;3.47;;;1.80;;
21166;SDS011;10741;52.272;9.580;2022-09-09T03:50:46;5.93;;;1.80;;
21166;SDS011;10741;52.272;9.580;2022-09-09T03:53:13;5.00;;;1.73;;
21166;SDS011;10741;52.272;9.580;2022-09-09T03:55:47;3.03;;;1.83;;
21166;SDS011;10741;52.272;9.580;2022-09-09T03:58:15;5.87;;;2.00;;
21166;SDS011;10741;52.272;9.580;2022-09-09T04:00:43;3.70;;;1.70;;
21166;SDS011;10741;52.272;9.580;2022-09-09T04:03:20;4.37;;;1.40;;
21166;SDS011;10741;52.272;9.580;2022-09-09T04:05:49;6.80;;;1.47;;
21166;SDS011;10741;52.272;9.580;2022-09-09T04:08:16;5.43;;;1.70;;
21166;SDS011;10741;52.272;9.580;2022-09-09T04:10:44;4.00;;;1.50;;
21166;SDS011;10741;52.272;9.580;2022-09-09T04:13:12;3.97;;;1.53;;
21166;SDS011;10741;52.272;9.580;2022-09-09T04:15:39;5.80;;;1.70;;
21166;SDS011;10741;52.272;9.580;2022-09-09T04:18:05;3.17;;;1.67;;
21166;SDS011;10741;52.272;9.580;2022-09-09T04:20:31;4.13;;;1.57;;
21166;SDS011;10741;52.272;9.580;2022-09-09T04:22:58;3.73;;;1.30;;
21166;SDS011;10741;52.272;9.580;2022-09-09T04:25:24;3.33;;;1.40;;
21166;SDS011;10741;52.272;9.580;2022-09-09T04:27:54;2.77;;;1.50;;
21166;SDS011;10741;52.272;9.580;2022-09-09T04:30:20;3.23;;;1.43;;
21166;SDS011;10741;52.272;9.580;2022-09-09T04:32:46;5.63;;;1.80;;
21166;SDS011;10741;52.272;9.580;2022-09-09T04:35:12;9.10;;;1.93;;
21166;SDS011;10741;52.272;9.580;2022-09-09T04:37:37;4.67;;;1.60;;
21166;SDS011;10741;52.272;9.580;2022-09-09T04:40:03;4.13;;;1.30;;
21166;SDS011;10741;52.272;9.580;2022-09-09T04:42:30;4.17;;;1.43;;
21166;SDS011;10741;52.272;9.580;2022-09-09T04:44:59;3.13;;;1.47;;
21166;SDS011;10741;52.272;9.580;2022-09-09T04:47:26;5.97;;;1.80;;
21166;SDS011;10741;52.272;9.580;2022-09-09T04:49:52;4.40;;;1.47;;
21166;SDS011;10741;52.272;9.580;2022-09-09T04:52:19;2.83;;;1.60;;
21166;SDS011;10741;52.272;9.580;2022-09-09T04:54:46;3.67;;;1.73;;
21166;SDS011;10741;52.272;9.580;2022-09-09T04:57:11;4.90;;;2.00;;
21166;SDS011;10741;52.272;9.580;2022-09-09T04:59:37;3.03;;;1.50;;
21166;SDS011;10741;52.272;9.580;2022-09-09T05:02:04;5.03;;;1.63;;
21166;SDS011;10741;52.272;9.580;2022-09-09T05:04:30;4.33;;;1.63;;
21166;SDS011;10741;52.272;9.580;2022-09-09T05:06:58;5.03;;;1.50;;
21166;SDS011;10741;52.272;9.580;2022-09-09T05:09:24;5.20;;;1.70;;
21166;SDS011;10741;52.272;9.580;2022-09-09T05:11:50;2.43;;;1.33;;
21166;SDS011;10741;52.272;9.580;2022-09-09T05:14:16;5.00;;;1.50;;
21166;SDS011;10741;52.272;9.580;2022-09-09T05:16:44;5.77;;;1.60;;
21166;SDS011;10741;52.272;9.580;2022-09-09T05:19:10;4.10;;;1.60;;
21166;SDS011;10741;52.272;9.580;2022-09-09T05:21:36;4.73;;;1.83;;
21166;SDS011;10741;52.272;9.580;2022-09-09T05:24:02;3.37;;;1.67;;
21166;SDS011;10741;52.272;9.580;2022-09-09T05:26:28;3.13;;;1.83;;
21166;SDS011;10741;52.272;9.580;2022-09-09T05:28:54;3.37;;;1.70;;
21166;SDS011;10741;52.272;9.580;2022-09-09T05:31:20;3.43;;;1.50;;
21166;SDS011;10741;52.272;9.580;2022-09-09T05:33:46;4.50;;;1.40;;
21166;SDS011;10741;52.272;9.580;2022-09-09T05:36:18;2.70;;;1.53;;
21166;SDS011;10741;52.272;9.580;2022-09-09T05:38:45;5.37;;;1.70;;
21166;SDS011;10741;52.272;9.580;2022-09-09T05:41:14;6.47;;;1.57;;
21166;SDS011;10741;52.272;9.580;2022-09-09T05:43:41;3.77;;;1.57;;
21166;SDS011;10741;52.272;9.580;2022-09-09T05:46:27;3.33;;;1.47;;
21166;SDS011;10741;52.272;9.580;2022-09-09T05:48:53;3.33;;;1.40;;
21166;SDS011;10741;52.272;9.580;2022-09-09T05:51:20;4.00;;;1.80;;
21166;SDS011;10741;52.272;9.580;2022-09-09T05:53:47;2.57;;;1.40;;
21166;SDS011;10741;52.272;9.580;2022-09-09T05:56:15;5.03;;;1.30;;
21166;SDS011;10741;52.272;9.580;2022-09-09T05:58:45;4.47;;;1.57;;
21166;SDS011;10741;52.272;9.580;2022-09-09T06:01:15;3.03;;;1.50;;
21166;SDS011;10741;52.272;9.580;2022-09-09T06:03:43;4.07;;;1.63;;
21166;SDS011;10741;52.272;9.580;2022-09-09T06:06:11;3.30;;;1.50;;
21166;SDS011;10741;52.272;9.580;2022-09-09T06:08:42;3.27;;;1.70;;
21166;SDS011;10741;52.272;9.580;2022-09-09T06:11:10;3.10;;;1.50;;
21166;SDS011;10741;52.272;9.580;2022-09-09T06:13:37;4.77;;;1.67;;
21166;SDS011;10741;52.272;9.580;2022-09-09T06:16:07;5.93;;;1.87;;
21166;SDS011;10741;52.272;9.580;2022-09-09T06:18:38;3.97;;;1.90;;
21166;SDS011;10741;52.272;9.580;2022-09-09T06:21:06;6.00;;;2.40;;
21166;SDS011;10741;52.272;9.580;2022-09-09T06:23:36;7.17;;;2.30;;
21166;SDS011;10741;52.272;9.580;2022-09-09T06:26:06;6.97;;;2.40;;
21166;SDS011;10741;52.272;9.580;2022-09-09T06:28:34;4.17;;;1.87;;
21166;SDS011;10741;52.272;9.580;2022-09-09T06:31:01;4.97;;;2.30;;
21166;SDS011;10741;52.272;9.580;2022-09-09T06:33:39;6.03;;;2.73;;
21166;SDS011;10741;52.272;9.580;2022-09-09T06:36:19;6.10;;;2.30;;
21166;SDS011;10741;52.272;9.580;2022-09-09T06:38:46;3.50;;;1.90;;
21166;SDS011;10741;52.272;9.580;2022-09-09T06:41:13;7.27;;;2.73;;
21166;SDS011;10741;52.272;9.580;2022-09-09T06:43:40;6.23;;;2.80;;
21166;SDS011;10741;52.272;9.580;2022-09-09T06:46:48;5.43;;;2.20;;
21166;SDS011;10741;52.272;9.580;2022-09-09T06:48:57;5.63;;;2.40;;
21166;SDS011;10741;52.272;9.580;2022-09-09T06:51:26;4.63;;;2.30;;
21166;SDS011;10741;52.272;9.580;2022-09-09T06:53:54;4.07;;;2.40;;
21166;SDS011;10741;52.272;9.580;2022-09-09T06:58:52;5.00;;;2.20;;
21166;SDS011;10741;52.272;9.580;2022-09-09T07:01:20;6.07;;;3.13;;
21166;SDS011;10741;52.272;9.580;2022-09-09T07:03:49;3.67;;;2.10;;
21166;SDS011;10741;52.272;9.580;2022-09-09T07:06:17;7.07;;;2.17;;
21166;SDS011;10741;52.272;9.580;2022-09-09T07:08:48;3.40;;;2.00;;
21166;SDS011;10741;52.272;9.580;2022-09-09T07:11:15;6.57;;;2.60;;
21166;SDS011;10741;52.272;9.580;2022-09-09T07:13:41;4.40;;;2.33;;
21166;SDS011;10741;52.272;9.580;2022-09-09T07:16:11;3.90;;;2.23;;
21166;SDS011;10741;52.272;9.580;2022-09-09T07:18:39;5.93;;;1.90;;
21166;SDS011;10741;52.272;9.580;2022-09-09T07:21:06;4.90;;;1.70;;
21166;SDS011;10741;52.272;9.580;2022-09-09T07:23:33;3.73;;;1.60;;
21166;SDS011;10741;52.272;9.580;2022-09-09T07:26:01;6.93;;;1.80;;
21166;SDS011;10741;52.272;9.580;2022-09-09T07:28:28;4.33;;;1.70;;
21166;SDS011;10741;52.272;9.580;2022-09-09T07:30:56;4.63;;;1.23;;
21166;SDS011;10741;52.272;9.580;2022-09-09T07:33:24;4.53;;;1.27;;
21166;SDS011;10741;52.272;9.580;2022-09-09T07:35:51;4.73;;;1.17;;
21166;SDS011;10741;52.272;9.580;2022-09-09T07:38:17;3.47;;;1.13;;
21166;SDS011;10741;52.272;9.580;2022-09-09T07:40:44;3.07;;;1.20;;
21166;SDS011;10741;52.272;9.580;2022-09-09T07:43:10;5.03;;;1.60;;
21166;SDS011;10741;52.272;9.580;2022-09-09T07:45:36;5.00;;;2.10;;
21166;SDS011;10741;52.272;9.580;2022-09-09T07:48:03;3.77;;;1.17;;
21166;SDS011;10741;52.272;9.580;2022-09-09T07:50:29;3.70;;;1.50;;
21166;SDS011;10741;52.272;9.580;2022-09-09T07:52:55;2.40;;;1.37;;
21166;SDS011;10741;52.272;9.580;2022-09-09T07:55:21;5.67;;;1.43;;
21166;SDS011;10741;52.272;9.580;2022-09-09T07:57:50;3.40;;;1.40;;
21166;SDS011;10741;52.272;9.580;2022-09-09T08:00:16;4.83;;;1.90;;
21166;SDS011;10741;52.272;9.580;2022-09-09T08:02:43;3.00;;;1.10;;
21166;SDS011;10741;52.272;9.580;2022-09-09T08:05:09;6.67;;;1.47;;
21166;SDS011;10741;52.272;9.580;2022-09-09T08:07:35;3.70;;;1.30;;
21166;SDS011;10741;52.272;9.580;2022-09-09T08:10:01;8.67;;;1.87;;
21166;SDS011;10741;52.272;9.580;2022-09-09T08:12:28;3.07;;;1.70;;
21166;SDS011;10741;52.272;9.580;2022-09-09T08:14:54;3.53;;;1.90;;
21166;SDS011;10741;52.272;9.580;2022-09-09T08:17:19;3.43;;;1.60;;
21166;SDS011;10741;52.272;9.580;2022-09-09T08:19:45;3.80;;;1.73;;
21166;SDS011;10741;52.272;9.580;2022-09-09T08:22:11;4.43;;;1.60;;
21166;SDS011;10741;52.272;9.580;2022-09-09T08:24:36;4.87;;;1.80;;
21166;SDS011;10741;52.272;9.580;2022-09-09T08:27:02;2.50;;;1.50;;
21166;SDS011;10741;52.272;9.580;2022-09-09T08:29:28;7.30;;;1.50;;
21166;SDS011;10741;52.272;9.580;2022-09-09T08:31:55;3.10;;;1.40;;
21166;SDS011;10741;52.272;9.580;2022-09-09T08:34:22;5.23;;;1.60;;
21166;SDS011;10741;52.272;9.580;2022-09-09T08:36:51;3.50;;;1.40;;
21166;SDS011;10741;52.272;9.580;2022-09-09T08:39:18;3.43;;;1.60;;
21166;SDS011;10741;52.272;9.580;2022-09-09T08:42:00;4.37;;;1.87;;
21166;SDS011;10741;52.272;9.580;2022-09-09T08:44:49;4.13;;;1.57;;
21166;SDS011;10741;52.272;9.580;2022-09-09T08:50:36;4.80;;;1.70;;
21166;SDS011;10741;52.272;9.580;2022-09-09T08:53:09;4.10;;;1.70;;
21166;SDS011;10741;52.272;9.580;2022-09-09T08:55:52;4.40;;;1.67;;
21166;SDS011;10741;52.272;9.580;2022-09-09T09:06:24;4.87;;;1.53;;
21166;SDS011;10741;52.272;9.580;2022-09-09T09:09:06;3.93;;;1.50;;
21166;SDS011;10741;52.272;9.580;2022-09-09T09:11:49;3.93;;;1.23;;
21166;SDS011;10741;52.272;9.580;2022-09-09T09:14:24;3.47;;;1.37;;
21166;SDS011;10741;52.272;9.580;2022-09-09T09:16:54;3.40;;;1.30;;
21166;SDS011;10741;52.272;9.580;2022-09-09T09:19:25;5.27;;;1.50;;
21166;SDS011;10741;52.272;9.580;2022-09-09T09:22:02;5.83;;;1.70;;
21166;SDS011;10741;52.272;9.580;2022-09-09T09:24:59;4.47;;;1.87;;
21166;SDS011;10741;52.272;9.580;2022-09-09T09:30:14;2.83;;;1.60;;
21166;SDS011;10741;52.272;9.580;2022-09-09T09:32:52;3.07;;;1.43;;
21166;SDS011;10741;52.272;9.580;2022-09-09T09:35:23;3.87;;;1.60;;
21166;SDS011;10741;52.272;9.580;2022-09-09T09:37:49;3.27;;;1.50;;
21166;SDS011;10741;52.272;9.580;2022-09-09T09:40:20;4.33;;;1.50;;
21166;SDS011;10741;52.272;9.580;2022-09-09T09:42:49;5.17;;;1.50;;
21166;SDS011;10741;52.272;9.580;2022-09-09T09:45:19;5.53;;;1.83;;
21166;SDS011;10741;52.272;9.580;2022-09-09T09:48:05;7.07;;;1.73;;
21166;SDS011;10741;52.272;9.580;2022-09-09T09:50:33;5.80;;;1.63;;
21166;SDS011;10741;52.272;9.580;2022-09-09T09:53:01;3.60;;;1.53;;
21166;SDS011;10741;52.272;9.580;2022-09-09T09:55:29;5.47;;;2.00;;
21166;SDS011;10741;52.272;9.580;2022-09-09T09:58:06;5.57;;;1.97;;
21166;SDS011;10741;52.272;9.580;2022-09-09T10:00:47;4.40;;;1.70;;
21166;SDS011;10741;52.272;9.580;2022-09-09T10:03:30;3.63;;;1.63;;
21166;SDS011;10741;52.272;9.580;2022-09-09T10:05:57;5.03;;;2.00;;
21166;SDS011;10741;52.272;9.580;2022-09-09T10:08:24;4.63;;;1.67;;
21166;SDS011;10741;52.272;9.580;2022-09-09T10:13:47;5.23;;;1.97;;
21166;SDS011;10741;52.272;9.580;2022-09-09T10:16:26;4.20;;;1.50;;
21166;SDS011;10741;52.272;9.580;2022-09-09T10:18:58;5.67;;;1.53;;
21166;SDS011;10741;52.272;9.580;2022-09-09T10:22:02;3.37;;;1.70;;
21166;SDS011;10741;52.272;9.580;2022-09-09T10:32:49;5.00;;;1.67;;
21166;SDS011;10741;52.272;9.580;2022-09-09T10:38:13;3.57;;;1.67;;
21166;SDS011;10741;52.272;9.580;2022-09-09T10:46:27;9.93;;;2.80;;
21166;SDS011;10741;52.272;9.580;2022-09-09T10:49:07;9.70;;;2.07;;
21166;SDS011;10741;52.272;9.580;2022-09-09T10:54:28;8.87;;;2.87;;
21166;SDS011;10741;52.272;9.580;2022-09-09T10:57:19;7.20;;;2.23;;
21166;SDS011;10741;52.272;9.580;2022-09-09T10:59:55;10.27;;;2.27;;
21166;SDS011;10741;52.272;9.580;2022-09-09T11:02:30;4.10;;;1.70;;
21166;SDS011;10741;52.272;9.580;2022-09-09T11:05:02;3.83;;;1.73;;
21166;SDS011;10741;52.272;9.580;2022-09-09T11:07:42;4.03;;;1.63;;
21166;SDS011;10741;52.272;9.580;2022-09-09T11:10:26;7.77;;;1.67;;
21166;SDS011;10741;52.272;9.580;2022-09-09T11:13:20;4.00;;;1.27;;
21166;SDS011;10741;52.272;9.580;2022-09-09T11:16:00;5.77;;;1.60;;
21166;SDS011;10741;52.272;9.580;2022-09-09T11:18:37;5.17;;;1.20;;
21166;SDS011;10741;52.272;9.580;2022-09-09T11:21:07;3.80;;;1.10;;
21166;SDS011;10741;52.272;9.580;2022-09-09T11:23:40;2.70;;;1.30;;
21166;SDS011;10741;52.272;9.580;2022-09-09T11:26:15;3.50;;;1.33;;
21166;SDS011;10741;52.272;9.580;2022-09-09T11:36:54;6.97;;;1.67;;
21166;SDS011;10741;52.272;9.580;2022-09-09T11:44:54;5.27;;;1.30;;
21166;SDS011;10741;52.272;9.580;2022-09-09T11:47:25;4.00;;;1.30;;
21166;SDS011;10741;52.272;9.580;2022-09-09T11:52:41;3.00;;;1.20;;
21166;SDS011;10741;52.272;9.580;2022-09-09T11:57:58;3.97;;;1.33;;
21166;SDS011;10741;52.272;9.580;2022-09-09T12:08:58;3.03;;;0.93;;
21166;SDS011;10741;52.272;9.580;2022-09-09T12:19:39;3.13;;;1.10;;
21166;SDS011;10741;52.272;9.580;2022-09-09T12:22:21;2.20;;;0.97;;
21166;SDS011;10741;52.272;9.580;2022-09-09T12:25:26;2.50;;;0.73;;
21166;SDS011;10741;52.272;9.580;2022-09-09T12:30:57;2.43;;;0.80;;
21166;SDS011;10741;52.272;9.580;2022-09-09T12:33:39;2.50;;;0.77;;
21166;SDS011;10741;52.272;9.580;2022-09-09T12:36:11;2.70;;;1.03;;
21166;SDS011;10741;52.272;9.580;2022-09-09T12:38:43;3.67;;;0.90;;
21166;SDS011;10741;52.272;9.580;2022-09-09T12:41:19;3.00;;;1.17;;
21166;SDS011;10741;52.272;9.580;2022-09-09T12:43:46;4.43;;;1.17;;
21166;SDS011;10741;52.272;9.580;2022-09-09T12:46:20;3.23;;;1.00;;
21166;SDS011;10741;52.272;9.580;2022-09-09T12:48:51;1.93;;;1.10;;
21166;SDS011;10741;52.272;9.580;2022-09-09T12:51:26;3.43;;;0.83;;
21166;SDS011;10741;52.272;9.580;2022-09-09T12:53:54;6.30;;;0.90;;
21166;SDS011;10741;52.272;9.580;2022-09-09T12:56:24;2.40;;;1.10;;
21166;SDS011;10741;52.272;9.580;2022-09-09T12:58:52;3.47;;;0.93;;
21166;SDS011;10741;52.272;9.580;2022-09-09T13:01:24;4.13;;;0.93;;
21166;SDS011;10741;52.272;9.580;2022-09-09T13:03:58;3.30;;;1.33;;
21166;SDS011;10741;52.272;9.580;2022-09-09T13:06:25;4.60;;;1.40;;
21166;SDS011;10741;52.272;9.580;2022-09-09T13:08:54;3.43;;;1.20;;
21166;SDS011;10741;52.272;9.580;2022-09-09T13:14:03;3.37;;;1.57;;
21166;SDS011;10741;52.272;9.580;2022-09-09T13:16:30;3.73;;;1.70;;
21166;SDS011;10741;52.272;9.580;2022-09-09T13:18:59;3.53;;;1.53;;
21166;SDS011;10741;52.272;9.580;2022-09-09T13:21:34;5.07;;;1.60;;
21166;SDS011;10741;52.272;9.580;2022-09-09T13:24:02;3.10;;;1.80;;
21166;SDS011;10741;52.272;9.580;2022-09-09T13:26:32;8.10;;;1.60;;
21166;SDS011;10741;52.272;9.580;2022-09-09T13:29:16;2.43;;;1.27;;
21166;SDS011;10741;52.272;9.580;2022-09-09T13:31:43;2.87;;;1.80;;
21166;SDS011;10741;52.272;9.580;2022-09-09T13:34:26;3.80;;;1.70;;
21166;SDS011;10741;52.272;9.580;2022-09-09T13:36:58;3.67;;;1.70;;
21166;SDS011;10741;52.272;9.580;2022-09-09T13:39:30;4.33;;;1.80;;
21166;SDS011;10741;52.272;9.580;2022-09-09T13:41:59;3.37;;;1.80;;
21166;SDS011;10741;52.272;9.580;2022-09-09T13:44:35;7.30;;;2.13;;
21166;SDS011;10741;52.272;9.580;2022-09-09T13:47:04;4.00;;;1.60;;
21166;SDS011;10741;52.272;9.580;2022-09-09T13:49:42;2.77;;;1.70;;
21166;SDS011;10741;52.272;9.580;2022-09-09T13:52:12;3.53;;;1.83;;
21166;SDS011;10741;52.272;9.580;2022-09-09T13:54:40;6.37;;;2.00;;
21166;SDS011;10741;52.272;9.580;2022-09-09T13:57:18;5.37;;;1.30;;
21166;SDS011;10741;52.272;9.580;2022-09-09T13:59:46;3.13;;;2.07;;
21166;SDS011;10741;52.272;9.580;2022-09-09T14:02:13;2.93;;;1.80;;
21166;SDS011;10741;52.272;9.580;2022-09-09T14:04:39;4.50;;;1.70;;
21166;SDS011;10741;52.272;9.580;2022-09-09T14:07:09;3.97;;;2.00;;
21166;SDS011;10741;52.272;9.580;2022-09-09T14:09:37;3.13;;;2.10;;
21166;SDS011;10741;52.272;9.580;2022-09-09T14:12:04;3.10;;;1.77;;
21166;SDS011;10741;52.272;9.580;2022-09-09T14:14:30;4.53;;;1.77;;
21166;SDS011;10741;52.272;9.580;2022-09-09T14:16:56;4.27;;;1.63;;
21166;SDS011;10741;52.272;9.580;2022-09-09T14:19:21;2.63;;;1.50;;
21166;SDS011;10741;52.272;9.580;2022-09-09T14:21:47;2.10;;;1.20;;
21166;SDS011;10741;52.272;9.580;2022-09-09T14:24:13;2.03;;;0.80;;
21166;SDS011;10741;52.272;9.580;2022-09-09T14:26:39;2.93;;;1.00;;
21166;SDS011;10741;52.272;9.580;2022-09-09T14:29:06;2.63;;;0.60;;
21166;SDS011;10741;52.272;9.580;2022-09-09T14:31:32;3.20;;;0.97;;
21166;SDS011;10741;52.272;9.580;2022-09-09T14:33:58;2.57;;;1.00;;
21166;SDS011;10741;52.272;9.580;2022-09-09T14:36:24;5.23;;;0.73;;
21166;SDS011;10741;52.272;9.580;2022-09-09T14:38:50;2.43;;;0.70;;
21166;SDS011;10741;52.272;9.580;2022-09-09T14:41:16;2.53;;;0.70;;
21166;SDS011;10741;52.272;9.580;2022-09-09T14:43:43;1.80;;;0.60;;
21166;SDS011;10741;52.272;9.580;2022-09-09T14:46:14;1.97;;;0.77;;
21166;SDS011;10741;52.272;9.580;2022-09-09T14:48:41;3.80;;;1.20;;
21166;SDS011;10741;52.272;9.580;2022-09-09T14:51:12;2.53;;;0.77;;
21166;SDS011;10741;52.272;9.580;2022-09-09T14:53:40;2.33;;;0.90;;
21166;SDS011;10741;52.272;9.580;2022-09-09T14:56:09;3.47;;;1.13;;
21166;SDS011;10741;52.272;9.580;2022-09-09T14:58:36;4.03;;;1.40;;
21166;SDS011;10741;52.272;9.580;2022-09-09T15:01:03;3.00;;;1.33;;
21166;SDS011;10741;52.272;9.580;2022-09-09T15:03:30;3.77;;;1.10;;
21166;SDS011;10741;52.272;9.580;2022-09-09T15:05:56;2.07;;;1.23;;
21166;SDS011;10741;52.272;9.580;2022-09-09T15:08:23;4.93;;;1.47;;
21166;SDS011;10741;52.272;9.580;2022-09-09T15:10:49;2.23;;;1.60;;
21166;SDS011;10741;52.272;9.580;2022-09-09T15:13:15;2.10;;;1.40;;
21166;SDS011;10741;52.272;9.580;2022-09-09T15:15:44;3.60;;;1.70;;
21166;SDS011;10741;52.272;9.580;2022-09-09T15:18:10;4.10;;;1.60;;
21166;SDS011;10741;52.272;9.580;2022-09-09T15:20:35;2.37;;;1.57;;
21166;SDS011;10741;52.272;9.580;2022-09-09T15:23:02;3.90;;;1.70;;
21166;SDS011;10741;52.272;9.580;2022-09-09T15:25:28;3.13;;;1.40;;
21166;SDS011;10741;52.272;9.580;2022-09-09T15:27:54;2.47;;;1.40;;
21166;SDS011;10741;52.272;9.580;2022-09-09T15:30:21;2.97;;;1.60;;
21166;SDS011;10741;52.272;9.580;2022-09-09T15:32:47;2.33;;;1.00;;
21166;SDS011;10741;52.272;9.580;2022-09-09T15:35:12;2.53;;;1.47;;
21166;SDS011;10741;52.272;9.580;2022-09-09T15:37:38;2.10;;;1.23;;
21166;SDS011;10741;52.272;9.580;2022-09-09T15:40:04;4.17;;;1.43;;
21166;SDS011;10741;52.272;9.580;2022-09-09T15:42:30;1.93;;;1.20;;
21166;SDS011;10741;52.272;9.580;2022-09-09T15:44:55;3.77;;;1.33;;
21166;SDS011;10741;52.272;9.580;2022-09-09T15:47:22;4.30;;;1.43;;
21166;SDS011;10741;52.272;9.580;2022-09-09T15:49:47;3.37;;;1.10;;
21166;SDS011;10741;52.272;9.580;2022-09-09T15:52:13;2.23;;;1.13;;
21166;SDS011;10741;52.272;9.580;2022-09-09T15:54:39;2.90;;;1.03;;
21166;SDS011;10741;52.272;9.580;2022-09-09T15:57:05;4.70;;;1.50;;
21166;SDS011;10741;52.272;9.580;2022-09-09T15:59:33;3.73;;;1.60;;
21166;SDS011;10741;52.272;9.580;2022-09-09T16:01:59;3.77;;;1.30;;
21166;SDS011;10741;52.272;9.580;2022-09-09T16:04:26;3.83;;;1.50;;
21166;SDS011;10741;52.272;9.580;2022-09-09T16:06:58;2.63;;;1.53;;
21166;SDS011;10741;52.272;9.580;2022-09-09T16:09:25;2.73;;;1.30;;
21166;SDS011;10741;52.272;9.580;2022-09-09T16:11:52;3.63;;;1.20;;
21166;SDS011;10741;52.272;9.580;2022-09-09T16:14:20;2.87;;;1.73;;
21166;SDS011;10741;52.272;9.580;2022-09-09T16:16:46;3.27;;;1.30;;
21166;SDS011;10741;52.272;9.580;2022-09-09T16:19:13;3.77;;;1.30;;
21166;SDS011;10741;52.272;9.580;2022-09-09T16:21:40;3.80;;;1.40;;
21166;SDS011;10741;52.272;9.580;2022-09-09T16:24:14;3.60;;;1.57;;
21166;SDS011;10741;52.272;9.580;2022-09-09T16:26:43;3.73;;;1.57;;
21166;SDS011;10741;52.272;9.580;2022-09-09T16:29:12;3.33;;;1.40;;
21166;SDS011;10741;52.272;9.580;2022-09-09T16:31:39;5.63;;;1.40;;
21166;SDS011;10741;52.272;9.580;2022-09-09T16:34:06;3.10;;;1.40;;
21166;SDS011;10741;52.272;9.580;2022-09-09T16:36:33;2.80;;;1.40;;
21166;SDS011;10741;52.272;9.580;2022-09-09T16:39:11;5.33;;;1.50;;
21166;SDS011;10741;52.272;9.580;2022-09-09T16:41:42;2.83;;;1.30;;
21166;SDS011;10741;52.272;9.580;2022-09-09T16:44:10;2.23;;;1.50;;
21166;SDS011;10741;52.272;9.580;2022-09-09T16:46:38;3.50;;;1.80;;
21166;SDS011;10741;52.272;9.580;2022-09-09T16:49:07;4.80;;;1.90;;
21166;SDS011;10741;52.272;9.580;2022-09-09T16:51:36;2.80;;;1.80;;
21166;SDS011;10741;52.272;9.580;2022-09-09T16:54:05;2.17;;;1.57;;
21166;SDS011;10741;52.272;9.580;2022-09-09T16:56:32;2.57;;;1.67;;
21166;SDS011;10741;52.272;9.580;2022-09-09T16:59:00;4.80;;;1.40;;
21166;SDS011;10741;52.272;9.580;2022-09-09T17:01:29;6.07;;;1.60;;
21166;SDS011;10741;52.272;9.580;2022-09-09T17:03:58;4.10;;;1.40;;
21166;SDS011;10741;52.272;9.580;2022-09-09T17:06:29;3.30;;;1.43;;
21166;SDS011;10741;52.272;9.580;2022-09-09T17:08:59;4.77;;;1.37;;
21166;SDS011;10741;52.272;9.580;2022-09-09T17:11:28;4.13;;;1.50;;
21166;SDS011;10741;52.272;9.580;2022-09-09T17:13:54;3.33;;;1.17;;
21166;SDS011;10741;52.272;9.580;2022-09-09T17:16:23;3.13;;;1.40;;
21166;SDS011;10741;52.272;9.580;2022-09-09T17:18:53;4.37;;;1.30;;
21166;SDS011;10741;52.272;9.580;2022-09-09T17:21:22;2.43;;;0.97;;
21166;SDS011;10741;52.272;9.580;2022-09-09T17:23:50;2.37;;;1.10;;